createdAt,value
2019-03-26T03:07:28.478Z,26.1
2019-03-26T03:08:18.157Z,26
2019-03-26T03:09:09.220Z,25.9
2019-03-26T03:09:58.778Z,25.8
2019-03-26T03:10:49.267Z,25.8
2019-03-26T03:11:38.786Z,25.7
2019-03-26T03:12:29.054Z,25.6
2019-03-26T03:13:19.713Z,25.6
2019-03-26T03:14:09.228Z,25.4
2019-03-26T03:14:59.140Z,25.4
2019-03-26T03:15:48.525Z,25.3
2019-03-26T03:16:39.627Z,25.3
2019-03-26T03:17:28.941Z,25.2
2019-03-26T03:18:19.485Z,25.1
2019-03-26T03:19:09.594Z,25.1
2019-03-26T03:19:59.943Z,25
2019-03-26T03:20:49.366Z,24.9
2019-03-26T03:21:39.983Z,24.9
2019-03-26T03:22:29.820Z,24.8
2019-03-26T03:23:19.849Z,24.7
2019-03-26T03:24:10.242Z,24.6
2019-03-26T03:24:59.927Z,24.6
2019-03-26T03:25:50.307Z,24.5
2019-03-26T03:26:40.238Z,24.7
2019-03-26T03:27:29.715Z,25.2
2019-03-26T03:28:20.380Z,25.9
2019-03-26T03:29:10.101Z,26.8
2019-03-26T03:30:00.181Z,27.6
2019-03-26T03:30:51.446Z,28.4
2019-03-26T03:31:40.690Z,28.8
2019-03-26T03:32:31.035Z,28.9
2019-03-26T03:33:21.463Z,28.9
2019-03-26T03:34:10.158Z,28.9
2019-03-26T03:35:01.907Z,28.8
2019-03-26T03:36:01.454Z,28.8
2019-03-26T03:36:41.092Z,28.6
2019-03-26T03:37:31.504Z,28.5
2019-03-26T03:38:20.778Z,28.4
2019-03-26T03:39:11.495Z,28.3
2019-03-26T03:40:01.280Z,28.2
2019-03-26T03:40:50.566Z,28.1
2019-03-26T03:41:41.431Z,28
2019-03-26T03:42:31.306Z,27.9
2019-03-26T03:43:21.751Z,27.8
2019-03-26T03:44:11.908Z,27.7
2019-03-26T03:45:01.147Z,27.6
2019-03-26T03:45:51.489Z,27.4
2019-03-26T03:46:41.796Z,27.4
2019-03-26T03:47:31.874Z,27.3
2019-03-26T03:48:21.488Z,27.2
2019-03-26T03:49:12.405Z,27.1
2019-03-26T03:50:02.538Z,27
2019-03-26T03:50:51.991Z,26.9
2019-03-26T03:51:42.180Z,26.8
2019-03-26T03:52:31.930Z,26.8
2019-03-26T03:53:21.938Z,26.6
2019-03-26T03:54:12.532Z,26.6
2019-03-26T03:55:02.361Z,26.5
2019-03-26T03:55:52.761Z,26.4
2019-03-26T03:56:42.820Z,26.3
2019-03-26T03:57:32.323Z,26.2
2019-03-26T03:58:22.685Z,26.1
2019-03-26T03:59:13.061Z,26
2019-03-26T04:00:02.452Z,25.9
2019-03-26T04:00:53.380Z,25.9
2019-03-26T04:01:42.682Z,25.8
2019-03-26T04:02:31.952Z,25.7
2019-03-26T04:03:23.114Z,25.6
2019-03-26T04:04:12.997Z,25.5
2019-03-26T04:05:03.875Z,25.4
2019-03-26T04:06:11.840Z,25.4
2019-03-26T04:06:42.686Z,25.2
2019-03-26T04:07:33.745Z,25.2
2019-03-26T04:08:22.627Z,24.7
2019-03-26T04:09:12.455Z,24.6
2019-03-26T04:10:03.381Z,24.9
2019-03-26T04:10:53.159Z,25.5
2019-03-26T04:11:43.990Z,26.3
2019-03-26T04:12:33.222Z,27.1
2019-03-26T04:13:23.897Z,27.9
2019-03-26T04:14:14.301Z,28.1
2019-03-26T04:15:04.195Z,27.6
2019-03-26T04:15:52.936Z,27.3
2019-03-26T04:16:43.664Z,27.2
2019-03-26T04:17:33.589Z,27.1
2019-03-26T04:18:24.217Z,26.9
2019-03-26T04:19:14.203Z,26.8
2019-03-26T04:20:04.528Z,26.7
2019-03-26T04:20:54.729Z,26.6
2019-03-26T04:21:44.418Z,26.5
2019-03-26T04:22:34.358Z,26.4
2019-03-26T04:23:24.828Z,26.3
2019-03-26T04:24:14.461Z,26.3
2019-03-26T04:25:19.302Z,26.2
2019-03-26T04:25:54.423Z,26.1
2019-03-26T04:26:44.780Z,26
2019-03-26T04:27:33.993Z,25.9
2019-03-26T04:28:24.611Z,25.8
2019-03-26T04:29:14.706Z,25.8
2019-03-26T04:30:05.313Z,25.7
2019-03-26T04:30:54.941Z,25.6
2019-03-26T04:31:44.616Z,25.6
2019-03-26T04:32:35.163Z,25.4
2019-03-26T04:33:24.240Z,25.4
2019-03-26T04:34:14.441Z,25.3
2019-03-26T04:35:05.455Z,25.3
2019-03-26T04:35:55.559Z,25.2
2019-03-26T04:36:45.384Z,25.1
2019-03-26T04:37:35.531Z,25.1
2019-03-26T04:38:25.586Z,25
2019-03-26T04:39:15.405Z,24.9
2019-03-26T04:40:06.440Z,24.8
2019-03-26T04:40:55.280Z,24.8
2019-03-26T04:41:45.615Z,24.7
2019-03-26T04:42:36.161Z,24.6
2019-03-26T04:43:28.633Z,24.6
2019-03-26T04:44:30.099Z,24.8
2019-03-26T04:45:05.700Z,25.4
2019-03-26T04:45:56.095Z,26
2019-03-26T04:46:46.140Z,26.8
2019-03-26T04:47:35.688Z,27.6
2019-03-26T04:48:24.998Z,27.6
2019-03-26T04:49:16.298Z,27.1
2019-03-26T04:50:06.066Z,27.3
2019-03-26T04:50:55.888Z,28.3
2019-03-26T04:51:46.183Z,27.8
2019-03-26T04:52:36.588Z,27.5
2019-03-26T04:53:26.075Z,27.3
2019-03-26T04:54:16.128Z,27.2
2019-03-26T04:55:06.059Z,27.1
2019-03-26T04:55:56.367Z,26.9
2019-03-26T04:56:46.626Z,26.9
2019-03-26T04:57:35.877Z,26.8
2019-03-26T04:58:26.213Z,26.7
2019-03-26T04:59:31.162Z,26.6
2019-03-26T05:00:06.538Z,26.4
2019-03-26T05:00:57.030Z,26.4
2019-03-26T05:01:47.212Z,26.3
2019-03-26T05:02:37.360Z,26.3
2019-03-26T05:03:27.747Z,26.1
2019-03-26T05:04:17.235Z,26.1
2019-03-26T05:05:07.902Z,26
2019-03-26T05:05:57.922Z,25.9
2019-03-26T05:06:48.197Z,25.9
2019-03-26T05:07:37.644Z,25.8
2019-03-26T05:08:27.501Z,25.7
2019-03-26T05:09:17.256Z,25.6
2019-03-26T05:10:08.242Z,25.6
2019-03-26T05:10:58.180Z,25.5
2019-03-26T05:11:47.684Z,25.4
2019-03-26T05:12:38.091Z,25.4
2019-03-26T05:13:27.511Z,25.3
2019-03-26T05:14:17.622Z,25.3
2019-03-26T05:15:08.589Z,25.2
2019-03-26T05:15:57.194Z,25.1
2019-03-26T05:16:47.319Z,25
2019-03-26T05:17:38.109Z,24.9
2019-03-26T05:18:27.456Z,24.9
2019-03-26T05:19:18.520Z,24.8
2019-03-26T05:20:07.656Z,24.7
2019-03-26T05:20:58.988Z,24.6
2019-03-26T05:21:47.662Z,24.6
2019-03-26T05:22:37.763Z,24.8
2019-03-26T05:23:28.063Z,25.3
2019-03-26T05:24:18.139Z,26
2019-03-26T05:25:09.168Z,26.8
2019-03-26T05:25:58.255Z,27.6
2019-03-26T05:26:48.253Z,28.1
2019-03-26T05:27:52.471Z,27.4
2019-03-26T05:28:29.205Z,27
2019-03-26T05:29:18.101Z,26.9
2019-03-26T05:30:08.493Z,26.7
2019-03-26T05:30:58.573Z,26.6
2019-03-26T05:31:48.804Z,26.5
2019-03-26T05:32:39.104Z,26.4
2019-03-26T05:33:28.853Z,26.3
2019-03-26T05:34:18.879Z,26.2
2019-03-26T05:35:09.173Z,26.1
2019-03-26T05:36:00.777Z,26
2019-03-26T05:37:00.678Z,25.9
2019-03-26T05:37:39.382Z,25.8
2019-03-26T05:38:30.182Z,25.8
2019-03-26T05:39:19.983Z,25.7
2019-03-26T05:40:09.292Z,25.6
2019-03-26T05:40:59.562Z,25.6
2019-03-26T05:41:49.452Z,25.5
2019-03-26T05:42:39.645Z,25.4
2019-03-26T05:43:30.160Z,25.3
2019-03-26T05:44:20.407Z,25.3
2019-03-26T05:45:09.662Z,25.2
2019-03-26T05:45:59.462Z,25.1
2019-03-26T05:46:49.811Z,25.1
2019-03-26T05:47:40.392Z,25
2019-03-26T05:48:29.845Z,24.9
2019-03-26T05:49:20.507Z,24.9
2019-03-26T05:50:10.558Z,24.8
2019-03-26T05:50:59.051Z,24.8
2019-03-26T05:51:49.579Z,24.7
2019-03-26T05:52:40.734Z,24.6
2019-03-26T05:53:30.522Z,24.5
2019-03-26T05:54:20.899Z,24.4
2019-03-26T05:55:10.097Z,24.4
2019-03-26T05:56:00.696Z,24.3
2019-03-26T05:56:50.751Z,24.3
2019-03-26T05:57:40.825Z,24.2
2019-03-26T05:58:31.081Z,24.1
2019-03-26T05:59:21.671Z,24.1
2019-03-26T06:00:10.715Z,23.9
2019-03-26T06:01:01.122Z,23.9
2019-03-26T06:01:50.784Z,23.8
2019-03-26T06:02:41.418Z,23.8
2019-03-26T06:05:28.213Z,23.6
2019-03-26T06:06:18.893Z,23.5
2019-03-26T06:07:15.014Z,23.4
2019-03-26T06:07:58.708Z,23.5
2019-03-26T06:08:48.489Z,23.8
2019-03-26T06:09:38.796Z,24.1
2019-03-26T06:10:28.486Z,24.7
2019-03-26T06:11:19.215Z,25.5
2019-03-26T06:12:09.010Z,26.3
2019-03-26T06:12:59.741Z,27.1
2019-03-26T06:13:49.487Z,27.3
2019-03-26T06:14:39.498Z,27.4
2019-03-26T06:15:29.013Z,27.3
2019-03-26T06:16:19.415Z,27.3
2019-03-26T06:17:09.437Z,27.2
2019-03-26T06:18:02.285Z,27.1
2019-03-26T06:18:49.787Z,27
2019-03-26T06:19:39.531Z,26.9
2019-03-26T06:20:29.067Z,26.8
2019-03-26T06:21:19.912Z,26.8
2019-03-26T06:22:09.323Z,26.6
2019-03-26T06:22:59.829Z,26.6
2019-03-26T06:23:49.336Z,26.4
2019-03-26T06:24:39.162Z,26.4
2019-03-26T06:25:29.647Z,26.3
2019-03-26T06:26:18.719Z,26.2
2019-03-26T06:27:10.516Z,26.1
2019-03-26T06:27:58.552Z,26
2019-03-26T06:28:48.934Z,25.9
2019-03-26T06:29:40.074Z,25.8
2019-03-26T06:30:29.963Z,25.8
2019-03-26T06:31:19.894Z,25.6
2019-03-26T06:32:10.214Z,25.6
2019-03-26T06:32:59.444Z,25.5
2019-03-26T06:33:50.132Z,25.4
2019-03-26T06:34:40.151Z,25.3
2019-03-26T06:35:29.978Z,25.3
2019-03-26T06:36:20.511Z,25.2
2019-03-26T06:37:23.666Z,25.1
2019-03-26T06:38:00.386Z,25
2019-03-26T06:38:51.031Z,24.9
2019-03-26T06:39:40.551Z,24.9
2019-03-26T06:40:31.099Z,24.8
2019-03-26T06:41:20.892Z,24.7
2019-03-26T06:42:10.969Z,24.6
2019-03-26T06:43:01.421Z,24.6
2019-03-26T06:43:50.802Z,24.5
2019-03-26T06:44:40.626Z,24.4
2019-03-26T06:45:31.262Z,24.3
2019-03-26T06:46:21.747Z,24.3
2019-03-26T06:47:10.746Z,24.2
2019-03-26T06:48:04.813Z,24.1
2019-03-26T06:48:50.705Z,24
2019-03-26T06:49:41.871Z,23.9
2019-03-26T06:50:32.152Z,23.9
2019-03-26T06:51:21.313Z,23.8
2019-03-26T06:52:11.126Z,23.8
2019-03-26T06:53:02.028Z,23.7
2019-03-26T06:53:51.871Z,23.6
2019-03-26T06:54:41.393Z,23.6
2019-03-26T06:55:31.970Z,23.9
2019-03-26T06:56:22.254Z,24.6
2019-03-26T06:57:10.733Z,24.8
2019-03-26T06:58:02.576Z,24.8
2019-03-26T06:58:52.278Z,24.9
2019-03-26T06:59:40.660Z,25.1
2019-03-26T07:00:32.843Z,25.4
2019-03-26T07:01:22.260Z,25.8
2019-03-26T07:02:11.850Z,26
2019-03-26T07:03:02.062Z,26.3
2019-03-26T07:05:43.477Z,26.8
2019-03-26T07:06:18.675Z,26.8
2019-03-26T07:07:07.785Z,26.8
2019-03-26T07:07:59.424Z,26.6
2019-03-26T07:09:18.223Z,26.6
2019-03-26T07:09:39.357Z,26.4
2019-03-26T07:10:29.785Z,26.4
2019-03-26T07:11:19.161Z,26.3
2019-03-26T07:12:13.080Z,26.2
2019-03-26T07:12:59.085Z,26.1
2019-03-26T07:14:03.962Z,26.1
2019-03-26T07:14:54.725Z,25.9
2019-03-26T07:15:29.918Z,25.8
2019-03-26T07:16:20.077Z,25.8
2019-03-26T07:17:10.044Z,25.7
2019-03-26T07:18:00.764Z,25.6
2019-03-26T07:18:48.457Z,25.5
2019-03-26T07:19:40.147Z,25.4
2019-03-26T07:20:30.124Z,25.4
2019-03-26T07:21:20.430Z,25.3
2019-03-26T07:22:09.346Z,25.3
2019-03-26T07:23:00.662Z,25.2
2019-03-26T07:23:50.411Z,25.1
2019-03-26T07:24:39.817Z,25
2019-03-26T07:25:31.226Z,25
2019-03-26T07:26:20.519Z,24.9
2019-03-26T07:27:40.074Z,24.8
2019-03-26T07:28:00.307Z,24.8
2019-03-26T07:28:50.411Z,24.7
2019-03-26T07:29:40.946Z,24.6
2019-03-26T07:30:30.973Z,24.6
2019-03-26T07:31:20.116Z,24.5
2019-03-26T07:32:10.411Z,24.4
2019-03-26T07:33:00.291Z,24.4
2019-03-26T07:33:49.944Z,24.3
2019-03-26T07:34:40.418Z,24.2
2019-03-26T07:35:29.546Z,24.1
2019-03-26T07:36:20.732Z,24.1
2019-03-26T07:37:10.750Z,24
2019-03-26T07:38:00.938Z,23.9
2019-03-26T07:38:50.718Z,23.9
2019-03-26T07:39:44.231Z,23.8
2019-03-26T07:40:30.422Z,23.8
2019-03-26T07:41:21.361Z,23.6
2019-03-26T07:42:11.441Z,23.6
2019-03-26T07:43:01.518Z,23.5
2019-03-26T07:43:50.777Z,23.4
2019-03-26T07:44:41.303Z,23.3
2019-03-26T07:45:31.803Z,23.3
2019-03-26T07:46:21.470Z,23.5
2019-03-26T07:47:11.217Z,24.1
2019-03-26T07:48:01.560Z,24.9
2019-03-26T07:48:52.247Z,25.8
2019-03-26T07:49:41.375Z,26.8
2019-03-26T07:50:31.000Z,27.2
2019-03-26T07:51:21.774Z,27.3
2019-03-26T07:52:11.345Z,27.4
2019-03-26T07:53:01.978Z,27.3
2019-03-26T07:53:52.312Z,27.3
2019-03-26T07:54:42.415Z,27.2
2019-03-26T07:55:32.243Z,27.1
2019-03-26T07:56:21.975Z,27
2019-03-26T07:57:12.948Z,26.9
2019-03-26T07:58:02.015Z,26.8
2019-03-26T07:58:51.787Z,26.7
2019-03-26T07:59:42.684Z,26.6
2019-03-26T08:00:33.012Z,26.6
2019-03-26T08:01:22.294Z,26.4
2019-03-26T08:02:12.891Z,26.3
2019-03-26T08:03:02.604Z,26.3
2019-03-26T08:03:52.463Z,26.2
2019-03-26T08:04:42.259Z,26.1
2019-03-26T08:05:38.762Z,25.9
2019-03-26T08:06:23.469Z,25.9
2019-03-26T08:07:12.992Z,25.8
2019-03-26T08:08:08.199Z,25.7
2019-03-26T08:08:52.551Z,25.6
2019-03-26T08:09:43.937Z,25.6
2019-03-26T08:10:32.506Z,25.4
2019-03-26T08:11:23.017Z,25.4
2019-03-26T08:12:13.612Z,25.3
2019-03-26T08:13:04.222Z,25.3
2019-03-26T08:13:53.654Z,25.1
2019-03-26T08:14:44.268Z,25.1
2019-03-26T08:15:33.706Z,25
2019-03-26T08:16:23.190Z,24.9
2019-03-26T08:17:13.959Z,24.8
2019-03-26T08:18:03.995Z,24.8
2019-03-26T08:18:53.034Z,24.7
2019-03-26T08:19:43.435Z,24.6
2019-03-26T08:20:32.779Z,24.5
2019-03-26T08:21:23.221Z,24.4
2019-03-26T08:22:13.058Z,24.4
2019-03-26T08:23:04.072Z,24.3
2019-03-26T08:23:52.803Z,24.2
2019-03-26T08:24:43.744Z,24.1
2019-03-26T08:25:37.616Z,24.1
2019-03-26T08:26:23.881Z,24
2019-03-26T08:27:14.173Z,23.9
2019-03-26T08:28:06.547Z,23.9
2019-03-26T08:28:54.300Z,23.8
2019-03-26T08:29:43.321Z,23.7
2019-03-26T08:30:33.688Z,23.6
2019-03-26T08:31:23.518Z,23.5
2019-03-26T08:32:14.281Z,23.7
2019-03-26T08:33:04.351Z,24.3
2019-03-26T08:33:54.178Z,25
2019-03-26T08:34:48.226Z,25.9
2019-03-26T08:35:33.415Z,26.9
2019-03-26T08:36:24.574Z,27.3
2019-03-26T08:37:15.198Z,27.4
2019-03-26T08:38:20.693Z,27.5
2019-03-26T08:38:55.028Z,27.4
2019-03-26T08:39:44.823Z,27.4
2019-03-26T08:40:34.666Z,27.3
2019-03-26T08:41:24.688Z,27.2
2019-03-26T08:42:14.722Z,27.1
2019-03-26T08:43:05.626Z,27
2019-03-26T08:43:54.857Z,26.9
2019-03-26T08:44:45.465Z,26.8
2019-03-26T08:45:35.795Z,26.7
2019-03-26T08:46:25.025Z,26.6
2019-03-26T08:47:15.367Z,26.5
2019-03-26T08:48:05.810Z,26.4
2019-03-26T08:48:55.464Z,26.3
2019-03-26T08:49:45.547Z,26.3
2019-03-26T08:50:35.772Z,26.2
2019-03-26T08:51:26.233Z,26.1
2019-03-26T08:52:16.492Z,25.9
2019-03-26T08:53:06.457Z,25.9
2019-03-26T08:53:55.998Z,25.8
2019-03-26T08:54:46.369Z,25.8
2019-03-26T08:55:36.729Z,25.6
2019-03-26T08:56:26.785Z,25.6
2019-03-26T08:57:16.365Z,25.4
2019-03-26T08:58:06.553Z,25.4
2019-03-26T08:58:56.937Z,25.3
2019-03-26T08:59:46.752Z,25.3
2019-03-26T09:00:40.517Z,25.1
2019-03-26T09:01:27.204Z,25.1
2019-03-26T09:02:17.577Z,25
2019-03-26T09:03:07.342Z,24.9
2019-03-26T09:03:57.406Z,24.8
2019-03-26T09:04:47.464Z,24.8
2019-03-26T09:05:37.287Z,24.7
2019-03-26T09:06:27.561Z,24.6
2019-03-26T09:07:20.782Z,24.5
2019-03-26T09:08:06.896Z,24.4
2019-03-26T09:08:56.387Z,24.4
2019-03-26T09:09:49.609Z,24.3
2019-03-26T09:10:46.593Z,24.3
2019-03-26T09:11:27.924Z,24.1
2019-03-26T09:12:17.710Z,24.1
2019-03-26T09:13:07.738Z,24
2019-03-26T09:13:58.288Z,23.9
2019-03-26T09:14:48.218Z,23.9
2019-03-26T09:15:38.503Z,23.8
2019-03-26T09:16:27.901Z,23.7
2019-03-26T09:17:21.154Z,23.5
2019-03-26T09:18:08.776Z,23.6
2019-03-26T09:18:58.468Z,23.8
2019-03-26T09:19:48.469Z,24.6
2019-03-26T09:20:38.238Z,25.4
2019-03-26T09:21:28.033Z,26.3
2019-03-26T09:22:18.943Z,27.1
2019-03-26T09:23:08.472Z,27.4
2019-03-26T09:23:58.756Z,27.4
2019-03-26T09:24:48.846Z,27.4
2019-03-26T09:25:38.228Z,27.4
2019-03-26T09:26:28.913Z,27.3
2019-03-26T09:27:17.865Z,27.2
2019-03-26T09:28:09.080Z,27.1
2019-03-26T09:28:59.411Z,27
2019-03-26T09:29:48.900Z,26.9
2019-03-26T09:30:39.273Z,26.8
2019-03-26T09:31:29.103Z,26.8
2019-03-26T09:32:19.684Z,26.6
2019-03-26T09:33:09.257Z,26.6
2019-03-26T09:33:59.232Z,26.4
2019-03-26T09:34:48.769Z,26.3
2019-03-26T09:35:39.397Z,26.3
2019-03-26T09:36:29.121Z,26.2
2019-03-26T09:37:19.197Z,26.1
2019-03-26T09:38:09.240Z,26
2019-03-26T09:38:59.621Z,25.9
2019-03-26T09:39:49.994Z,25.8
2019-03-26T09:40:39.989Z,25.8
2019-03-26T09:41:30.067Z,25.6
2019-03-26T09:42:19.535Z,25.6
2019-03-26T09:43:09.979Z,25.4
2019-03-26T09:43:59.694Z,25.4
2019-03-26T09:44:49.490Z,25.3
2019-03-26T09:45:39.497Z,25.3
2019-03-26T09:46:30.685Z,25.1
2019-03-26T09:47:25.697Z,25.1
2019-03-26T09:48:09.416Z,25
2019-03-26T09:48:59.727Z,24.9
2019-03-26T09:49:50.364Z,24.9
2019-03-26T09:50:40.794Z,24.8
2019-03-26T09:51:30.790Z,24.7
2019-03-26T09:52:20.012Z,24.6
2019-03-26T09:53:10.746Z,24.5
2019-03-26T09:54:00.406Z,24.4
2019-03-26T09:54:50.524Z,24.4
2019-03-26T09:55:40.791Z,24.3
2019-03-26T09:56:40.838Z,24.3
2019-03-26T09:57:21.209Z,24.1
2019-03-26T09:58:11.004Z,24.1
2019-03-26T09:59:01.281Z,24
2019-03-26T09:59:50.803Z,23.9
2019-03-26T10:00:44.184Z,23.9
2019-03-26T10:01:31.551Z,23.8
2019-03-26T10:02:21.122Z,23.8
2019-03-26T10:03:11.664Z,23.5
2019-03-26T10:04:01.689Z,23.6
2019-03-26T10:07:03.742Z,25.3
2019-03-26T10:07:33.410Z,27
2019-03-26T10:08:56.769Z,27.3
2019-03-26T10:09:34.228Z,27.4
2019-03-26T10:10:15.286Z,27.4
2019-03-26T10:11:04.568Z,27.4
2019-03-26T10:11:57.625Z,27.3
2019-03-26T10:12:32.406Z,27.2
2019-03-26T10:13:19.029Z,27.2
2019-03-26T10:14:08.721Z,27.1
2019-03-26T10:14:57.805Z,27
2019-03-26T10:15:48.731Z,26.9
2019-03-26T10:16:38.517Z,26.8
2019-03-26T10:17:29.131Z,26.7
2019-03-26T10:18:18.572Z,26.6
2019-03-26T10:19:07.865Z,26.5
2019-03-26T10:19:58.493Z,26.4
2019-03-26T10:20:48.825Z,26.3
2019-03-26T10:21:39.165Z,26.2
2019-03-26T10:22:27.928Z,26.1
2019-03-26T10:23:19.488Z,26.1
2019-03-26T10:24:09.293Z,25.9
2019-03-26T10:24:59.378Z,25.8
2019-03-26T10:25:49.077Z,25.8
2019-03-26T10:26:39.733Z,25.7
2019-03-26T10:27:29.557Z,25.6
2019-03-26T10:28:19.893Z,25.5
2019-03-26T10:29:54.369Z,25.4
2019-03-26T10:30:08.195Z,25.3
2019-03-26T10:30:54.977Z,25.3
2019-03-26T10:31:44.969Z,25.2
2019-03-26T10:32:35.274Z,25.1
2019-03-26T10:33:25.630Z,25.1
2019-03-26T10:34:15.109Z,24.9
2019-03-26T10:35:05.829Z,24.9
2019-03-26T10:35:55.890Z,24.8
2019-03-26T10:36:49.054Z,24.7
2019-03-26T10:37:35.681Z,24.6
2019-03-26T10:38:26.027Z,24.6
2019-03-26T10:39:16.021Z,24.5
2019-03-26T10:40:05.054Z,24.4
2019-03-26T10:40:56.206Z,24.4
2019-03-26T10:41:45.444Z,24.3
2019-03-26T10:42:36.583Z,24.2
2019-03-26T10:43:26.219Z,24.1
2019-03-26T10:44:15.578Z,24.1
2019-03-26T10:45:06.602Z,24
2019-03-26T10:45:56.507Z,23.9
2019-03-26T10:46:48.954Z,23.9
2019-03-26T10:47:36.087Z,23.8
2019-03-26T10:48:26.713Z,23.6
2019-03-26T10:49:16.693Z,23.5
2019-03-26T10:50:06.096Z,23.6
2019-03-26T10:51:11.294Z,24.1
2019-03-26T10:51:46.658Z,25.2
2019-03-26T10:52:43.393Z,25.8
2019-03-26T10:53:26.259Z,26.8
2019-03-26T10:54:16.797Z,27.3
2019-03-26T10:55:06.970Z,27.4
2019-03-26T10:55:57.318Z,27.4
2019-03-26T10:56:46.798Z,27.4
2019-03-26T10:57:36.722Z,27.4
2019-03-26T10:58:27.166Z,27.3
2019-03-26T10:59:17.506Z,27.2
2019-03-26T11:00:07.853Z,27.1
2019-03-26T11:00:57.613Z,27
2019-03-26T11:01:47.755Z,26.9
2019-03-26T11:02:55.023Z,26.8
2019-03-26T11:03:27.311Z,26.6
2019-03-26T11:04:17.680Z,26.6
2019-03-26T11:05:07.952Z,26.5
2019-03-26T11:05:57.217Z,26.4
2019-03-26T11:06:47.880Z,26.3
2019-03-26T11:07:36.894Z,26.2
2019-03-26T11:08:26.900Z,26.1
2019-03-26T11:09:50.970Z,26.1
2019-03-26T11:10:07.981Z,25.9
2019-03-26T11:10:58.410Z,25.9
2019-03-26T11:11:47.829Z,25.8
2019-03-26T11:12:38.213Z,25.7
2019-03-26T11:13:28.559Z,25.6
2019-03-26T11:14:18.877Z,25.6
2019-03-26T11:15:07.955Z,25.4
2019-03-26T11:15:58.794Z,25.4
2019-03-26T11:16:47.967Z,25.3
2019-03-26T11:17:38.434Z,25.2
2019-03-26T11:18:28.604Z,25.1
2019-03-26T11:19:18.894Z,25.1
2019-03-26T11:20:08.633Z,25
2019-03-26T11:21:12.371Z,24.9
2019-03-26T11:21:48.967Z,24.8
2019-03-26T11:22:38.696Z,24.8
2019-03-26T11:23:28.754Z,24.7
2019-03-26T11:24:19.125Z,24.6
2019-03-26T11:25:11.855Z,24.5
2019-03-26T11:25:59.432Z,24.4
2019-03-26T11:26:48.787Z,24.4
2019-03-26T11:27:39.509Z,24.3
2019-03-26T11:28:44.596Z,24.3
2019-03-26T11:29:19.134Z,24.1
2019-03-26T11:30:09.376Z,24.1
2019-03-26T11:30:59.297Z,24
2019-03-26T11:31:49.532Z,23.9
2019-03-26T11:32:39.484Z,23.9
2019-03-26T11:33:29.820Z,23.8
2019-03-26T11:34:19.234Z,23.8
2019-03-26T11:35:10.156Z,23.5
2019-03-26T11:36:00.180Z,23.5
2019-03-26T11:36:49.675Z,23.8
2019-03-26T11:37:39.566Z,24.4
2019-03-26T11:38:29.737Z,25.3
2019-03-26T11:39:33.236Z,26.2
2019-03-26T11:40:10.239Z,27.2
2019-03-26T11:41:00.683Z,27.4
2019-03-26T11:41:50.374Z,27.4
2019-03-26T11:42:40.384Z,27.4
2019-03-26T11:43:30.618Z,27.4
2019-03-26T11:44:21.307Z,27.3
2019-03-26T11:45:10.168Z,27.3
2019-03-26T11:46:00.143Z,27.1
2019-03-26T11:46:50.481Z,27.1
2019-03-26T11:47:40.136Z,26.9
2019-03-26T11:48:30.275Z,26.9
2019-03-26T11:49:20.412Z,26.8
2019-03-26T11:50:13.473Z,26.7
2019-03-26T11:51:01.025Z,26.6
2019-03-26T11:51:51.061Z,26.5
2019-03-26T11:52:40.870Z,26.4
2019-03-26T11:53:45.068Z,26.3
2019-03-26T11:54:20.495Z,26.2
2019-03-26T11:55:11.912Z,26.1
2019-03-26T11:56:16.282Z,26.1
2019-03-26T11:56:51.693Z,25.9
2019-03-26T11:57:41.793Z,25.9
2019-03-26T11:58:40.360Z,25.8
2019-03-26T11:59:21.854Z,25.7
2019-03-26T12:00:11.982Z,25.6
2019-03-26T12:01:01.682Z,25.6
2019-03-26T12:01:55.438Z,25.4
2019-03-26T12:02:43.648Z,25.4
2019-03-26T12:03:32.198Z,25.3
2019-03-26T12:04:22.194Z,25.2
2019-03-26T12:06:28.207Z,25
2019-03-26T12:07:17.437Z,24.9
2019-03-26T12:08:08.632Z,24.9
2019-03-26T12:08:58.671Z,24.8
2019-03-26T12:09:55.971Z,24.7
2019-03-26T12:10:39.089Z,24.6
2019-03-26T12:11:28.654Z,24.6
2019-03-26T12:12:18.349Z,24.5
2019-03-26T12:13:08.396Z,24.4
2019-03-26T12:13:58.541Z,24.3
2019-03-26T12:14:48.837Z,24.3
2019-03-26T12:15:38.901Z,24.2
2019-03-26T12:16:28.673Z,24.1
2019-03-26T12:17:22.771Z,24
2019-03-26T12:18:08.996Z,23.9
2019-03-26T12:18:59.368Z,23.9
2019-03-26T12:19:49.526Z,23.8
2019-03-26T12:20:39.225Z,23.8
2019-03-26T12:21:28.743Z,23.7
2019-03-26T12:22:19.451Z,23.4
2019-03-26T12:23:09.464Z,23.4
2019-03-26T12:23:58.908Z,23.7
2019-03-26T12:24:49.003Z,24.3
2019-03-26T12:25:39.130Z,25.1
2019-03-26T12:26:29.953Z,26.1
2019-03-26T12:27:18.943Z,27
2019-03-26T12:28:08.803Z,27.3
2019-03-26T12:28:59.920Z,27.4
2019-03-26T12:29:49.763Z,27.4
2019-03-26T12:30:40.017Z,27.4
2019-03-26T12:31:29.885Z,27.3
2019-03-26T12:32:19.642Z,27.3
2019-03-26T12:33:09.810Z,27.1
2019-03-26T12:34:00.012Z,27.1
2019-03-26T12:34:50.097Z,26.9
2019-03-26T12:35:40.240Z,26.9
2019-03-26T12:36:44.247Z,26.8
2019-03-26T12:37:20.476Z,26.6
2019-03-26T12:38:10.313Z,26.6
2019-03-26T12:39:00.025Z,26.5
2019-03-26T12:40:08.388Z,26.4
2019-03-26T12:40:40.011Z,26.3
2019-03-26T12:41:30.198Z,26.2
2019-03-26T12:42:20.490Z,26.1
2019-03-26T12:43:10.452Z,26
2019-03-26T12:44:00.415Z,25.9
2019-03-26T12:44:50.748Z,25.8
2019-03-26T12:45:40.844Z,25.8
2019-03-26T12:46:31.394Z,25.7
2019-03-26T12:47:21.524Z,25.6
2019-03-26T12:48:11.782Z,25.5
2019-03-26T12:49:00.214Z,25.4
2019-03-26T12:49:51.642Z,25.4
2019-03-26T12:50:42.064Z,25.3
2019-03-26T12:51:30.716Z,25.2
2019-03-26T12:52:20.744Z,25.1
2019-03-26T12:53:15.699Z,25.1
2019-03-26T12:54:01.921Z,24.9
2019-03-26T12:54:51.703Z,24.9
2019-03-26T12:55:41.794Z,24.8
2019-03-26T12:56:32.374Z,24.8
2019-03-26T12:57:23.821Z,24.6
2019-03-26T12:58:12.671Z,24.6
2019-03-26T12:59:02.049Z,24.5
2019-03-26T12:59:52.421Z,24.4
2019-03-26T13:00:42.343Z,24.4
2019-03-26T13:01:32.350Z,24.3
2019-03-26T13:02:21.708Z,24.2
2019-03-26T13:03:12.066Z,24.1
2019-03-26T13:04:20.708Z,24.1
2019-03-26T13:04:52.500Z,24
2019-03-26T13:05:43.244Z,23.9
2019-03-26T13:06:33.130Z,23.8
2019-03-26T13:07:22.343Z,23.8
2019-03-26T13:08:12.228Z,23.7
2019-03-26T13:09:02.179Z,23.6
2019-03-26T13:09:52.918Z,23.4
2019-03-26T13:10:59.115Z,23.4
2019-03-26T13:11:32.678Z,24.2
2019-03-26T13:12:21.965Z,24.8
2019-03-26T13:13:12.555Z,25.6
2019-03-26T13:14:02.443Z,26.6
2019-03-26T13:14:52.213Z,27.3
2019-03-26T13:15:42.378Z,27.4
2019-03-26T13:16:33.295Z,27.4
2019-03-26T13:17:23.147Z,27.4
2019-03-26T13:18:17.325Z,27.4
2019-03-26T13:19:02.977Z,27.3
2019-03-26T13:19:52.425Z,27.2
2019-03-26T13:20:44.171Z,27.1
2019-03-26T13:21:37.249Z,27
2019-03-26T13:22:23.180Z,26.9
2019-03-26T13:23:13.500Z,26.8
2019-03-26T13:24:04.459Z,26.8
2019-03-26T13:24:53.905Z,26.6
2019-03-26T13:25:43.157Z,26.6
2019-03-26T13:26:34.067Z,26.4
2019-03-26T13:27:23.266Z,26.4
2019-03-26T13:28:14.707Z,26.3
2019-03-26T13:29:04.496Z,26.2
2019-03-26T13:29:54.604Z,26.1
2019-03-26T13:30:44.334Z,26
2019-03-26T13:31:35.009Z,25.9
2019-03-26T13:32:24.823Z,25.9
2019-03-26T13:33:15.034Z,25.8
2019-03-26T13:34:04.359Z,25.7
2019-03-26T13:34:54.101Z,25.6
2019-03-26T13:35:44.414Z,25.5
2019-03-26T13:36:34.503Z,25.4
2019-03-26T13:37:28.033Z,25.3
2019-03-26T13:38:15.501Z,25.3
2019-03-26T13:39:04.929Z,25.2
2019-03-26T13:39:54.226Z,25.1
2019-03-26T13:40:45.588Z,25.1
2019-03-26T13:41:35.683Z,24.9
2019-03-26T13:42:24.896Z,24.9
2019-03-26T13:43:15.811Z,24.8
2019-03-26T13:44:05.556Z,24.7
2019-03-26T13:44:55.899Z,24.6
2019-03-26T13:45:45.819Z,24.6
2019-03-26T13:46:35.735Z,24.5
2019-03-26T13:47:25.529Z,24.4
2019-03-26T13:48:14.723Z,24.4
2019-03-26T13:49:05.196Z,24.3
2019-03-26T13:49:55.535Z,24.2
2019-03-26T13:50:46.336Z,24.1
2019-03-26T13:51:39.299Z,24.1
2019-03-26T13:52:25.938Z,24
2019-03-26T13:53:15.450Z,23.9
2019-03-26T13:54:06.348Z,23.8
2019-03-26T13:54:56.347Z,23.8
2019-03-26T13:55:46.683Z,23.7
2019-03-26T13:56:36.537Z,23.6
2019-03-26T13:57:26.547Z,23.4
2019-03-26T13:58:16.871Z,23.3
2019-03-26T13:59:06.357Z,23.8
2019-03-26T13:59:58.548Z,24.4
2019-03-26T14:00:46.260Z,24.9
2019-03-26T14:01:36.907Z,24.8
2019-03-26T14:02:27.295Z,24.9
2019-03-26T14:03:16.710Z,25
2019-03-26T14:04:06.524Z,25.3
2019-03-26T14:04:56.522Z,25.6
2019-03-26T14:07:28.125Z,26.4
2019-03-26T14:08:17.415Z,26.8
2019-03-26T14:09:08.089Z,26.8
2019-03-26T14:09:58.287Z,26.8
2019-03-26T14:10:51.079Z,26.7
2019-03-26T14:11:37.614Z,26.6
2019-03-26T14:12:29.089Z,26.5
2019-03-26T14:13:18.839Z,26.4
2019-03-26T14:14:08.727Z,26.3
2019-03-26T14:14:57.981Z,26.3
2019-03-26T14:15:49.049Z,26.2
2019-03-26T14:16:39.336Z,26.1
2019-03-26T14:17:28.597Z,26
2019-03-26T14:18:19.211Z,25.9
2019-03-26T14:19:09.561Z,25.8
2019-03-26T14:19:58.840Z,25.8
2019-03-26T14:20:48.628Z,25.6
2019-03-26T14:21:38.878Z,25.6
2019-03-26T14:22:29.781Z,25.5
2019-03-26T14:23:19.636Z,25.4
2019-03-26T14:24:09.066Z,25.4